sensor_id;sensor_type;location;lat;lon;timestamp;P1;durP1;ratioP1;P2;durP2;ratioP2
78410;SDS011;67706;51.074;-1.796;2024-03-25T00:01:48;4.30;;;1.42;;
78410;SDS011;67706;51.074;-1.796;2024-03-25T00:04:13;1.83;;;1.20;;
78410;SDS011;67706;51.074;-1.796;2024-03-25T00:06:42;1.65;;;0.80;;
78410;SDS011;67706;51.074;-1.796;2024-03-25T00:09:08;2.47;;;0.88;;
78410;SDS011;67706;51.074;-1.796;2024-03-25T00:11:39;4.72;;;1.00;;
78410;SDS011;67706;51.074;-1.796;2024-03-25T00:14:04;1.45;;;1.00;;
78410;SDS011;67706;51.074;-1.796;2024-03-25T00:16:31;4.53;;;0.93;;
78410;SDS011;67706;51.074;-1.796;2024-03-25T00:18:57;2.55;;;0.85;;
78410;SDS011;67706;51.074;-1.796;2024-03-25T00:21:23;1.13;;;0.73;;
78410;SDS011;67706;51.074;-1.796;2024-03-25T00:23:51;3.08;;;0.90;;
78410;SDS011;67706;51.074;-1.796;2024-03-25T00:26:17;3.75;;;0.70;;
78410;SDS011;67706;51.074;-1.796;2024-03-25T00:28:43;1.67;;;1.20;;
78410;SDS011;67706;51.074;-1.796;2024-03-25T00:31:09;2.50;;;0.65;;
78410;SDS011;67706;51.074;-1.796;2024-03-25T00:33:35;4.53;;;0.95;;
78410;SDS011;67706;51.074;-1.796;2024-03-25T00:36:02;2.80;;;1.05;;
78410;SDS011;67706;51.074;-1.796;2024-03-25T00:38:28;2.83;;;0.65;;
78410;SDS011;67706;51.074;-1.796;2024-03-25T00:40:56;2.20;;;0.75;;
78410;SDS011;67706;51.074;-1.796;2024-03-25T00:43:22;1.70;;;1.00;;
78410;SDS011;67706;51.074;-1.796;2024-03-25T00:45:49;2.40;;;0.70;;
78410;SDS011;67706;51.074;-1.796;2024-03-25T00:48:15;3.05;;;0.80;;
78410;SDS011;67706;51.074;-1.796;2024-03-25T00:50:42;2.10;;;0.90;;
78410;SDS011;67706;51.074;-1.796;2024-03-25T00:53:07;5.65;;;1.05;;
78410;SDS011;67706;51.074;-1.796;2024-03-25T00:55:34;1.95;;;0.90;;
78410;SDS011;67706;51.074;-1.796;2024-03-25T00:58:01;3.10;;;0.88;;
78410;SDS011;67706;51.074;-1.796;2024-03-25T01:00:29;2.80;;;1.10;;
78410;SDS011;67706;51.074;-1.796;2024-03-25T01:02:55;1.42;;;0.57;;
78410;SDS011;67706;51.074;-1.796;2024-03-25T01:05:22;1.73;;;0.75;;
78410;SDS011;67706;51.074;-1.796;2024-03-25T01:07:51;1.92;;;0.90;;
78410;SDS011;67706;51.074;-1.796;2024-03-25T01:10:18;3.25;;;0.90;;
78410;SDS011;67706;51.074;-1.796;2024-03-25T01:12:43;0.82;;;0.60;;
78410;SDS011;67706;51.074;-1.796;2024-03-25T01:15:12;2.15;;;0.95;;
78410;SDS011;67706;51.074;-1.796;2024-03-25T01:17:37;1.38;;;0.73;;
78410;SDS011;67706;51.074;-1.796;2024-03-25T01:20:04;2.58;;;0.85;;
78410;SDS011;67706;51.074;-1.796;2024-03-25T01:22:34;2.38;;;0.80;;
78410;SDS011;67706;51.074;-1.796;2024-03-25T01:25:00;2.33;;;0.60;;
78410;SDS011;67706;51.074;-1.796;2024-03-25T01:27:26;2.08;;;0.75;;
78410;SDS011;67706;51.074;-1.796;2024-03-25T01:29:55;0.50;;;0.40;;
78410;SDS011;67706;51.074;-1.796;2024-03-25T01:32:23;1.75;;;0.45;;
78410;SDS011;67706;51.074;-1.796;2024-03-25T01:34:49;0.70;;;0.60;;
78410;SDS011;67706;51.074;-1.796;2024-03-25T01:37:15;1.42;;;0.68;;
78410;SDS011;67706;51.074;-1.796;2024-03-25T01:39:42;2.45;;;1.00;;
78410;SDS011;67706;51.074;-1.796;2024-03-25T01:42:07;2.50;;;0.70;;
78410;SDS011;67706;51.074;-1.796;2024-03-25T01:44:34;2.85;;;0.85;;
78410;SDS011;67706;51.074;-1.796;2024-03-25T01:46:59;1.58;;;0.80;;
78410;SDS011;67706;51.074;-1.796;2024-03-25T01:49:28;1.65;;;0.65;;
78410;SDS011;67706;51.074;-1.796;2024-03-25T01:51:54;1.88;;;0.73;;
78410;SDS011;67706;51.074;-1.796;2024-03-25T01:54:22;6.15;;;1.00;;
78410;SDS011;67706;51.074;-1.796;2024-03-25T01:56:47;2.20;;;0.90;;
78410;SDS011;67706;51.074;-1.796;2024-03-25T01:59:14;5.05;;;1.20;;
78410;SDS011;67706;51.074;-1.796;2024-03-25T02:01:41;2.17;;;1.02;;
78410;SDS011;67706;51.074;-1.796;2024-03-25T02:04:09;2.17;;;0.95;;
78410;SDS011;67706;51.074;-1.796;2024-03-25T02:06:36;3.83;;;0.80;;
78410;SDS011;67706;51.074;-1.796;2024-03-25T02:09:04;4.35;;;0.93;;
78410;SDS011;67706;51.074;-1.796;2024-03-25T02:11:31;1.20;;;0.70;;
78410;SDS011;67706;51.074;-1.796;2024-03-25T02:13:58;3.13;;;1.00;;
78410;SDS011;67706;51.074;-1.796;2024-03-25T02:16:24;3.47;;;0.75;;
78410;SDS011;67706;51.074;-1.796;2024-03-25T02:21:17;0.65;;;0.40;;
78410;SDS011;67706;51.074;-1.796;2024-03-25T02:23:45;2.97;;;0.98;;
78410;SDS011;67706;51.074;-1.796;2024-03-25T02:26:16;1.58;;;0.90;;
78410;SDS011;67706;51.074;-1.796;2024-03-25T02:28:43;1.83;;;0.73;;
78410;SDS011;67706;51.074;-1.796;2024-03-25T02:31:08;1.52;;;0.63;;
78410;SDS011;67706;51.074;-1.796;2024-03-25T02:33:35;2.88;;;0.93;;
78410;SDS011;67706;51.074;-1.796;2024-03-25T02:36:00;3.67;;;0.80;;
78410;SDS011;67706;51.074;-1.796;2024-03-25T02:38:27;2.10;;;0.77;;
78410;SDS011;67706;51.074;-1.796;2024-03-25T02:40:53;4.00;;;1.08;;
78410;SDS011;67706;51.074;-1.796;2024-03-25T02:43:22;0.90;;;0.55;;
78410;SDS011;67706;51.074;-1.796;2024-03-25T02:45:47;4.00;;;1.00;;
78410;SDS011;67706;51.074;-1.796;2024-03-25T02:48:14;1.75;;;0.90;;
78410;SDS011;67706;51.074;-1.796;2024-03-25T02:50:40;1.88;;;0.80;;
78410;SDS011;67706;51.074;-1.796;2024-03-25T02:53:07;2.60;;;0.90;;
78410;SDS011;67706;51.074;-1.796;2024-03-25T02:55:32;2.53;;;0.95;;
78410;SDS011;67706;51.074;-1.796;2024-03-25T02:57:59;2.40;;;0.80;;
78410;SDS011;67706;51.074;-1.796;2024-03-25T03:00:26;3.20;;;1.25;;
78410;SDS011;67706;51.074;-1.796;2024-03-25T03:02:53;4.18;;;1.20;;
78410;SDS011;67706;51.074;-1.796;2024-03-25T03:05:18;1.33;;;0.90;;
78410;SDS011;67706;51.074;-1.796;2024-03-25T03:07:45;3.10;;;0.77;;
78410;SDS011;67706;51.074;-1.796;2024-03-25T03:10:11;3.28;;;0.95;;
78410;SDS011;67706;51.074;-1.796;2024-03-25T03:12:37;3.38;;;0.90;;
78410;SDS011;67706;51.074;-1.796;2024-03-25T03:15:03;3.70;;;0.80;;
78410;SDS011;67706;51.074;-1.796;2024-03-25T03:17:32;3.95;;;1.15;;
78410;SDS011;67706;51.074;-1.796;2024-03-25T03:19:58;5.53;;;1.33;;
78410;SDS011;67706;51.074;-1.796;2024-03-25T03:22:25;2.55;;;0.77;;
78410;SDS011;67706;51.074;-1.796;2024-03-25T03:24:50;2.58;;;0.90;;
78410;SDS011;67706;51.074;-1.796;2024-03-25T03:27:17;3.40;;;0.98;;
78410;SDS011;67706;51.074;-1.796;2024-03-25T03:29:43;7.63;;;1.65;;
78410;SDS011;67706;51.074;-1.796;2024-03-25T03:32:09;4.35;;;1.02;;
78410;SDS011;67706;51.074;-1.796;2024-03-25T03:34:37;1.80;;;0.77;;
78410;SDS011;67706;51.074;-1.796;2024-03-25T03:37:03;2.97;;;1.00;;
78410;SDS011;67706;51.074;-1.796;2024-03-25T03:39:29;5.25;;;1.00;;
78410;SDS011;67706;51.074;-1.796;2024-03-25T03:41:56;3.20;;;0.95;;
78410;SDS011;67706;51.074;-1.796;2024-03-25T03:44:22;2.10;;;0.60;;
78410;SDS011;67706;51.074;-1.796;2024-03-25T03:49:14;3.08;;;0.90;;
78410;SDS011;67706;51.074;-1.796;2024-03-25T03:51:42;1.52;;;0.73;;
78410;SDS011;67706;51.074;-1.796;2024-03-25T03:54:08;4.93;;;1.10;;
78410;SDS011;67706;51.074;-1.796;2024-03-25T03:56:34;2.20;;;0.70;;
78410;SDS011;67706;51.074;-1.796;2024-03-25T03:59:00;2.25;;;0.80;;
78410;SDS011;67706;51.074;-1.796;2024-03-25T04:01:26;3.20;;;0.73;;
78410;SDS011;67706;51.074;-1.796;2024-03-25T04:03:52;2.33;;;0.70;;
78410;SDS011;67706;51.074;-1.796;2024-03-25T04:06:19;2.50;;;0.98;;
78410;SDS011;67706;51.074;-1.796;2024-03-25T04:08:46;1.80;;;0.68;;
78410;SDS011;67706;51.074;-1.796;2024-03-25T04:11:12;2.45;;;0.70;;
78410;SDS011;67706;51.074;-1.796;2024-03-25T04:13:38;4.70;;;0.80;;
78410;SDS011;67706;51.074;-1.796;2024-03-25T04:16:05;2.58;;;0.93;;
78410;SDS011;67706;51.074;-1.796;2024-03-25T04:18:32;2.65;;;0.80;;
78410;SDS011;67706;51.074;-1.796;2024-03-25T04:21:00;3.40;;;0.68;;
78410;SDS011;67706;51.074;-1.796;2024-03-25T04:23:25;3.40;;;0.60;;
78410;SDS011;67706;51.074;-1.796;2024-03-25T04:25:53;1.33;;;0.57;;
78410;SDS011;67706;51.074;-1.796;2024-03-25T04:28:19;2.75;;;0.43;;
78410;SDS011;67706;51.074;-1.796;2024-03-25T04:30:50;4.13;;;0.52;;
78410;SDS011;67706;51.074;-1.796;2024-03-25T04:33:17;1.83;;;0.45;;
78410;SDS011;67706;51.074;-1.796;2024-03-25T04:35:44;0.93;;;0.35;;
78410;SDS011;67706;51.074;-1.796;2024-03-25T04:38:10;2.72;;;0.50;;
78410;SDS011;67706;51.074;-1.796;2024-03-25T04:40:35;5.65;;;0.88;;
78410;SDS011;67706;51.074;-1.796;2024-03-25T04:43:03;4.85;;;0.52;;
78410;SDS011;67706;51.074;-1.796;2024-03-25T04:45:29;0.88;;;0.50;;
78410;SDS011;67706;51.074;-1.796;2024-03-25T04:47:54;1.00;;;0.60;;
78410;SDS011;67706;51.074;-1.796;2024-03-25T04:50:20;1.83;;;0.40;;
78410;SDS011;67706;51.074;-1.796;2024-03-25T04:52:46;2.13;;;0.40;;
78410;SDS011;67706;51.074;-1.796;2024-03-25T04:55:12;2.13;;;0.57;;
78410;SDS011;67706;51.074;-1.796;2024-03-25T04:57:37;1.65;;;0.50;;
78410;SDS011;67706;51.074;-1.796;2024-03-25T05:00:05;1.48;;;0.35;;
78410;SDS011;67706;51.074;-1.796;2024-03-25T05:02:32;2.67;;;0.68;;
78410;SDS011;67706;51.074;-1.796;2024-03-25T05:04:57;0.30;;;0.30;;
78410;SDS011;67706;51.074;-1.796;2024-03-25T05:07:23;3.25;;;0.50;;
78410;SDS011;67706;51.074;-1.796;2024-03-25T05:09:49;0.47;;;0.20;;
78410;SDS011;67706;51.074;-1.796;2024-03-25T05:12:14;1.60;;;0.47;;
78410;SDS011;67706;51.074;-1.796;2024-03-25T05:14:40;8.82;;;0.65;;
78410;SDS011;67706;51.074;-1.796;2024-03-25T05:17:07;1.85;;;0.43;;
78410;SDS011;67706;51.074;-1.796;2024-03-25T05:19:33;1.77;;;0.50;;
78410;SDS011;67706;51.074;-1.796;2024-03-25T05:21:59;1.73;;;0.43;;
78410;SDS011;67706;51.074;-1.796;2024-03-25T05:24:24;3.78;;;0.47;;
78410;SDS011;67706;51.074;-1.796;2024-03-25T05:26:50;2.63;;;0.60;;
78410;SDS011;67706;51.074;-1.796;2024-03-25T05:29:16;3.42;;;0.82;;
78410;SDS011;67706;51.074;-1.796;2024-03-25T05:31:55;1.77;;;0.57;;
78410;SDS011;67706;51.074;-1.796;2024-03-25T05:34:23;1.85;;;0.68;;
78410;SDS011;67706;51.074;-1.796;2024-03-25T05:36:49;4.22;;;0.63;;
78410;SDS011;67706;51.074;-1.796;2024-03-25T05:39:15;2.72;;;0.43;;
78410;SDS011;67706;51.074;-1.796;2024-03-25T05:41:40;1.23;;;0.50;;
78410;SDS011;67706;51.074;-1.796;2024-03-25T05:44:06;1.65;;;0.45;;
78410;SDS011;67706;51.074;-1.796;2024-03-25T05:46:32;1.70;;;0.68;;
78410;SDS011;67706;51.074;-1.796;2024-03-25T05:49:00;3.38;;;0.73;;
78410;SDS011;67706;51.074;-1.796;2024-03-25T05:51:28;2.40;;;0.63;;
78410;SDS011;67706;51.074;-1.796;2024-03-25T05:53:54;4.70;;;0.70;;
78410;SDS011;67706;51.074;-1.796;2024-03-25T05:56:19;4.65;;;0.55;;
78410;SDS011;67706;51.074;-1.796;2024-03-25T05:58:45;1.17;;;0.60;;
78410;SDS011;67706;51.074;-1.796;2024-03-25T06:01:11;0.40;;;0.30;;
78410;SDS011;67706;51.074;-1.796;2024-03-25T06:03:36;0.52;;;0.35;;
78410;SDS011;67706;51.074;-1.796;2024-03-25T06:06:02;2.47;;;0.43;;
78410;SDS011;67706;51.074;-1.796;2024-03-25T06:08:30;0.20;;;0.10;;
78410;SDS011;67706;51.074;-1.796;2024-03-25T06:11:00;2.28;;;0.30;;
78410;SDS011;67706;51.074;-1.796;2024-03-25T06:13:26;0.55;;;0.25;;
78410;SDS011;67706;51.074;-1.796;2024-03-25T06:15:52;0.63;;;0.50;;
78410;SDS011;67706;51.074;-1.796;2024-03-25T06:18:17;0.85;;;0.20;;
78410;SDS011;67706;51.074;-1.796;2024-03-25T06:20:43;1.90;;;0.60;;
78410;SDS011;67706;51.074;-1.796;2024-03-25T06:23:09;2.00;;;0.50;;
78410;SDS011;67706;51.074;-1.796;2024-03-25T06:25:36;1.00;;;0.40;;
78410;SDS011;67706;51.074;-1.796;2024-03-25T06:28:02;2.17;;;0.60;;
78410;SDS011;67706;51.074;-1.796;2024-03-25T06:30:27;1.85;;;0.38;;
78410;SDS011;67706;51.074;-1.796;2024-03-25T06:33:11;0.52;;;0.20;;
78410;SDS011;67706;51.074;-1.796;2024-03-25T06:35:55;1.92;;;0.40;;
78410;SDS011;67706;51.074;-1.796;2024-03-25T06:38:21;2.55;;;0.50;;
78410;SDS011;67706;51.074;-1.796;2024-03-25T06:40:48;0.88;;;0.40;;
78410;SDS011;67706;51.074;-1.796;2024-03-25T06:43:14;0.28;;;0.10;;
78410;SDS011;67706;51.074;-1.796;2024-03-25T06:45:40;0.47;;;0.22;;
78410;SDS011;67706;51.074;-1.796;2024-03-25T06:48:06;1.70;;;0.50;;
78410;SDS011;67706;51.074;-1.796;2024-03-25T06:50:32;0.10;;;0.10;;
78410;SDS011;67706;51.074;-1.796;2024-03-25T06:52:57;2.13;;;0.40;;
78410;SDS011;67706;51.074;-1.796;2024-03-25T06:55:23;1.92;;;0.50;;
78410;SDS011;67706;51.074;-1.796;2024-03-25T06:57:50;3.70;;;0.60;;
78410;SDS011;67706;51.074;-1.796;2024-03-25T07:00:16;1.70;;;0.20;;
78410;SDS011;67706;51.074;-1.796;2024-03-25T07:02:42;1.08;;;0.63;;
78410;SDS011;67706;51.074;-1.796;2024-03-25T07:05:08;0.57;;;0.40;;
78410;SDS011;67706;51.074;-1.796;2024-03-25T07:07:34;5.45;;;1.10;;
78410;SDS011;67706;51.074;-1.796;2024-03-25T07:10:00;2.05;;;0.32;;
78410;SDS011;67706;51.074;-1.796;2024-03-25T07:12:25;0.35;;;0.20;;
78410;SDS011;67706;51.074;-1.796;2024-03-25T07:14:53;1.90;;;0.60;;
78410;SDS011;67706;51.074;-1.796;2024-03-25T07:17:18;0.43;;;0.25;;
78410;SDS011;67706;51.074;-1.796;2024-03-25T07:19:44;0.80;;;0.30;;
78410;SDS011;67706;51.074;-1.796;2024-03-25T07:22:10;0.73;;;0.30;;
78410;SDS011;67706;51.074;-1.796;2024-03-25T07:24:35;4.60;;;0.35;;
78410;SDS011;67706;51.074;-1.796;2024-03-25T07:27:01;0.85;;;0.28;;
78410;SDS011;67706;51.074;-1.796;2024-03-25T07:29:27;4.13;;;0.50;;
78410;SDS011;67706;51.074;-1.796;2024-03-25T07:31:54;3.30;;;0.20;;
78410;SDS011;67706;51.074;-1.796;2024-03-25T07:34:20;0.50;;;0.45;;
78410;SDS011;67706;51.074;-1.796;2024-03-25T07:36:46;0.80;;;0.38;;
78410;SDS011;67706;51.074;-1.796;2024-03-25T07:39:12;4.30;;;0.50;;
78410;SDS011;67706;51.074;-1.796;2024-03-25T07:41:38;0.73;;;0.17;;
78410;SDS011;67706;51.074;-1.796;2024-03-25T07:44:03;2.10;;;0.80;;
78410;SDS011;67706;51.074;-1.796;2024-03-25T07:46:29;1.50;;;0.30;;
78410;SDS011;67706;51.074;-1.796;2024-03-25T07:48:56;1.75;;;0.25;;
78410;SDS011;67706;51.074;-1.796;2024-03-25T07:51:22;0.93;;;0.20;;
78410;SDS011;67706;51.074;-1.796;2024-03-25T07:53:48;1.85;;;0.20;;
78410;SDS011;67706;51.074;-1.796;2024-03-25T07:56:14;1.25;;;0.22;;
78410;SDS011;67706;51.074;-1.796;2024-03-25T08:01:06;1.13;;;0.28;;
78410;SDS011;67706;51.074;-1.796;2024-03-25T08:03:31;0.50;;;0.20;;
78410;SDS011;67706;51.074;-1.796;2024-03-25T08:05:58;0.57;;;0.38;;
78410;SDS011;67706;51.074;-1.796;2024-03-25T08:08:24;1.33;;;0.28;;
78410;SDS011;67706;51.074;-1.796;2024-03-25T08:10:50;1.92;;;0.50;;
78410;SDS011;67706;51.074;-1.796;2024-03-25T08:13:16;1.23;;;0.20;;
78410;SDS011;67706;51.074;-1.796;2024-03-25T08:15:42;0.95;;;0.20;;
78410;SDS011;67706;51.074;-1.796;2024-03-25T08:18:07;0.70;;;0.25;;
78410;SDS011;67706;51.074;-1.796;2024-03-25T08:20:33;0.35;;;0.20;;
78410;SDS011;67706;51.074;-1.796;2024-03-25T08:23:00;0.93;;;0.38;;
78410;SDS011;67706;51.074;-1.796;2024-03-25T08:25:26;0.17;;;0.17;;
78410;SDS011;67706;51.074;-1.796;2024-03-25T08:27:52;2.22;;;0.30;;
78410;SDS011;67706;51.074;-1.796;2024-03-25T08:30:17;0.38;;;0.20;;
78410;SDS011;67706;51.074;-1.796;2024-03-25T08:32:43;0.82;;;0.25;;
78410;SDS011;67706;51.074;-1.796;2024-03-25T08:35:09;1.80;;;0.28;;
78410;SDS011;67706;51.074;-1.796;2024-03-25T08:37:34;2.28;;;0.20;;
78410;SDS011;67706;51.074;-1.796;2024-03-25T08:40:01;0.38;;;0.22;;
78410;SDS011;67706;51.074;-1.796;2024-03-25T08:42:28;0.40;;;0.30;;
78410;SDS011;67706;51.074;-1.796;2024-03-25T08:44:54;0.57;;;0.52;;
78410;SDS011;67706;51.074;-1.796;2024-03-25T08:47:19;0.75;;;0.28;;
78410;SDS011;67706;51.074;-1.796;2024-03-25T08:49:45;0.90;;;0.40;;
78410;SDS011;67706;51.074;-1.796;2024-03-25T08:52:11;0.20;;;0.20;;
78410;SDS011;67706;51.074;-1.796;2024-03-25T08:54:36;5.68;;;0.47;;
78410;SDS011;67706;51.074;-1.796;2024-03-25T08:57:04;2.58;;;0.40;;
78410;SDS011;67706;51.074;-1.796;2024-03-25T08:59:29;2.30;;;0.30;;
78410;SDS011;67706;51.074;-1.796;2024-03-25T09:01:55;2.28;;;0.40;;
78410;SDS011;67706;51.074;-1.796;2024-03-25T09:04:21;0.47;;;0.30;;
78410;SDS011;67706;51.074;-1.796;2024-03-25T09:06:46;2.70;;;0.38;;
78410;SDS011;67706;51.074;-1.796;2024-03-25T09:09:12;1.90;;;0.30;;
78410;SDS011;67706;51.074;-1.796;2024-03-25T09:11:56;2.30;;;0.43;;
78410;SDS011;67706;51.074;-1.796;2024-03-25T09:14:23;2.25;;;0.63;;
78410;SDS011;67706;51.074;-1.796;2024-03-25T09:16:49;4.50;;;1.10;;
78410;SDS011;67706;51.074;-1.796;2024-03-25T09:19:15;1.98;;;0.75;;
78410;SDS011;67706;51.074;-1.796;2024-03-25T09:21:40;0.80;;;0.40;;
78410;SDS011;67706;51.074;-1.796;2024-03-25T09:24:06;2.60;;;0.38;;
78410;SDS011;67706;51.074;-1.796;2024-03-25T09:26:32;1.17;;;0.43;;
78410;SDS011;67706;51.074;-1.796;2024-03-25T09:28:58;0.85;;;0.40;;
78410;SDS011;67706;51.074;-1.796;2024-03-25T09:31:25;1.55;;;0.50;;
78410;SDS011;67706;51.074;-1.796;2024-03-25T09:33:51;5.75;;;0.70;;
78410;SDS011;67706;51.074;-1.796;2024-03-25T09:36:16;2.45;;;0.95;;
78410;SDS011;67706;51.074;-1.796;2024-03-25T09:38:42;0.45;;;0.35;;
78410;SDS011;67706;51.074;-1.796;2024-03-25T09:41:08;1.65;;;0.30;;
78410;SDS011;67706;51.074;-1.796;2024-03-25T09:43:37;3.22;;;0.40;;
78410;SDS011;67706;51.074;-1.796;2024-03-25T09:46:08;1.33;;;0.40;;
78410;SDS011;67706;51.074;-1.796;2024-03-25T09:48:36;3.17;;;0.32;;
78410;SDS011;67706;51.074;-1.796;2024-03-25T09:51:02;0.50;;;0.30;;
78410;SDS011;67706;51.074;-1.796;2024-03-25T09:53:29;0.68;;;0.30;;
78410;SDS011;67706;51.074;-1.796;2024-03-25T09:55:55;0.65;;;0.25;;
78410;SDS011;67706;51.074;-1.796;2024-03-25T09:58:22;1.77;;;0.40;;
78410;SDS011;67706;51.074;-1.796;2024-03-25T10:00:50;7.63;;;0.68;;
78410;SDS011;67706;51.074;-1.796;2024-03-25T10:03:15;0.95;;;0.47;;
78410;SDS011;67706;51.074;-1.796;2024-03-25T10:05:42;0.93;;;0.43;;
78410;SDS011;67706;51.074;-1.796;2024-03-25T10:08:08;0.75;;;0.38;;
78410;SDS011;67706;51.074;-1.796;2024-03-25T10:10:34;3.08;;;0.60;;
78410;SDS011;67706;51.074;-1.796;2024-03-25T10:12:59;3.50;;;0.80;;
78410;SDS011;67706;51.074;-1.796;2024-03-25T10:15:26;3.42;;;0.50;;
78410;SDS011;67706;51.074;-1.796;2024-03-25T10:17:52;2.92;;;0.50;;
78410;SDS011;67706;51.074;-1.796;2024-03-25T10:20:18;2.30;;;0.40;;
78410;SDS011;67706;51.074;-1.796;2024-03-25T10:22:45;3.03;;;0.52;;
78410;SDS011;67706;51.074;-1.796;2024-03-25T10:25:21;1.40;;;0.60;;
78410;SDS011;67706;51.074;-1.796;2024-03-25T10:27:54;1.38;;;0.50;;
78410;SDS011;67706;51.074;-1.796;2024-03-25T10:30:20;0.30;;;0.30;;
78410;SDS011;67706;51.074;-1.796;2024-03-25T10:32:56;1.30;;;0.47;;
78410;SDS011;67706;51.074;-1.796;2024-03-25T10:35:23;3.63;;;0.50;;
78410;SDS011;67706;51.074;-1.796;2024-03-25T10:37:57;7.57;;;0.75;;
78410;SDS011;67706;51.074;-1.796;2024-03-25T10:40:25;2.50;;;0.60;;
78410;SDS011;67706;51.074;-1.796;2024-03-25T10:42:53;2.50;;;0.52;;
78410;SDS011;67706;51.074;-1.796;2024-03-25T10:45:25;0.73;;;0.20;;
78410;SDS011;67706;51.074;-1.796;2024-03-25T10:47:52;2.70;;;0.68;;
78410;SDS011;67706;51.074;-1.796;2024-03-25T10:50:18;2.03;;;0.85;;
78410;SDS011;67706;51.074;-1.796;2024-03-25T10:52:47;2.83;;;0.50;;
78410;SDS011;67706;51.074;-1.796;2024-03-25T10:55:14;2.90;;;0.40;;
78410;SDS011;67706;51.074;-1.796;2024-03-25T10:57:40;3.47;;;0.50;;
78410;SDS011;67706;51.074;-1.796;2024-03-25T11:00:07;3.38;;;0.65;;
78410;SDS011;67706;51.074;-1.796;2024-03-25T11:02:33;4.15;;;0.75;;
78410;SDS011;67706;51.074;-1.796;2024-03-25T11:04:59;4.32;;;0.65;;
78410;SDS011;67706;51.074;-1.796;2024-03-25T11:07:30;1.70;;;0.50;;
78410;SDS011;67706;51.074;-1.796;2024-03-25T11:10:02;2.00;;;0.80;;
78410;SDS011;67706;51.074;-1.796;2024-03-25T11:12:34;1.38;;;0.52;;
78410;SDS011;67706;51.074;-1.796;2024-03-25T11:15:00;0.98;;;0.47;;
78410;SDS011;67706;51.074;-1.796;2024-03-25T11:17:27;5.95;;;0.90;;
78410;SDS011;67706;51.074;-1.796;2024-03-25T11:19:52;3.63;;;0.60;;
78410;SDS011;67706;51.074;-1.796;2024-03-25T11:22:23;2.30;;;1.00;;
78410;SDS011;67706;51.074;-1.796;2024-03-25T11:24:51;1.83;;;0.90;;
78410;SDS011;67706;51.074;-1.796;2024-03-25T11:27:21;3.33;;;0.90;;
78410;SDS011;67706;51.074;-1.796;2024-03-25T11:29:49;1.95;;;1.25;;
78410;SDS011;67706;51.074;-1.796;2024-03-25T11:32:14;4.70;;;1.00;;
78410;SDS011;67706;51.074;-1.796;2024-03-25T11:34:49;5.43;;;0.80;;
78410;SDS011;67706;51.074;-1.796;2024-03-25T11:37:15;3.22;;;0.60;;
78410;SDS011;67706;51.074;-1.796;2024-03-25T11:39:41;1.95;;;0.50;;
78410;SDS011;67706;51.074;-1.796;2024-03-25T11:42:07;0.57;;;0.40;;
78410;SDS011;67706;51.074;-1.796;2024-03-25T11:44:35;1.48;;;0.68;;
78410;SDS011;67706;51.074;-1.796;2024-03-25T11:47:03;2.72;;;0.60;;
78410;SDS011;67706;51.074;-1.796;2024-03-25T11:49:30;1.30;;;0.50;;
78410;SDS011;67706;51.074;-1.796;2024-03-25T11:51:55;1.65;;;0.45;;
78410;SDS011;67706;51.074;-1.796;2024-03-25T11:54:25;0.95;;;0.50;;
78410;SDS011;67706;51.074;-1.796;2024-03-25T11:56:52;1.75;;;0.50;;
78410;SDS011;67706;51.074;-1.796;2024-03-25T11:59:19;1.15;;;0.40;;
78410;SDS011;67706;51.074;-1.796;2024-03-25T12:01:45;3.22;;;0.60;;
78410;SDS011;67706;51.074;-1.796;2024-03-25T12:04:16;3.13;;;0.43;;
78410;SDS011;67706;51.074;-1.796;2024-03-25T12:06:43;3.83;;;0.80;;
78410;SDS011;67706;51.074;-1.796;2024-03-25T12:09:09;2.25;;;0.50;;
78410;SDS011;67706;51.074;-1.796;2024-03-25T12:11:54;4.50;;;0.57;;
78410;SDS011;67706;51.074;-1.796;2024-03-25T12:14:21;3.05;;;0.70;;
78410;SDS011;67706;51.074;-1.796;2024-03-25T12:16:47;0.95;;;0.47;;
78410;SDS011;67706;51.074;-1.796;2024-03-25T12:19:14;0.77;;;0.30;;
78410;SDS011;67706;51.074;-1.796;2024-03-25T12:21:40;1.52;;;0.57;;
78410;SDS011;67706;51.074;-1.796;2024-03-25T12:24:07;0.65;;;0.43;;
78410;SDS011;67706;51.074;-1.796;2024-03-25T12:28:58;1.00;;;0.45;;
78410;SDS011;67706;51.074;-1.796;2024-03-25T12:31:24;0.85;;;0.50;;
78410;SDS011;67706;51.074;-1.796;2024-03-25T12:33:49;3.08;;;0.40;;
78410;SDS011;67706;51.074;-1.796;2024-03-25T12:36:17;0.98;;;0.30;;
78410;SDS011;67706;51.074;-1.796;2024-03-25T12:38:45;1.50;;;0.28;;
78410;SDS011;67706;51.074;-1.796;2024-03-25T12:41:21;0.95;;;0.40;;
78410;SDS011;67706;51.074;-1.796;2024-03-25T12:43:48;1.00;;;0.43;;
78410;SDS011;67706;51.074;-1.796;2024-03-25T12:46:15;1.35;;;0.45;;
78410;SDS011;67706;51.074;-1.796;2024-03-25T12:48:41;1.95;;;0.68;;
78410;SDS011;67706;51.074;-1.796;2024-03-25T12:51:11;2.15;;;0.30;;
78410;SDS011;67706;51.074;-1.796;2024-03-25T12:53:39;3.70;;;0.60;;
78410;SDS011;67706;51.074;-1.796;2024-03-25T12:56:05;2.42;;;0.60;;
78410;SDS011;67706;51.074;-1.796;2024-03-25T12:58:31;1.35;;;0.50;;
78410;SDS011;67706;51.074;-1.796;2024-03-25T13:00:57;3.97;;;0.77;;
78410;SDS011;67706;51.074;-1.796;2024-03-25T13:03:23;0.80;;;0.60;;
78410;SDS011;67706;51.074;-1.796;2024-03-25T13:05:49;3.05;;;0.82;;
78410;SDS011;67706;51.074;-1.796;2024-03-25T13:08:15;6.40;;;0.80;;
78410;SDS011;67706;51.074;-1.796;2024-03-25T13:13:08;0.60;;;0.40;;
78410;SDS011;67706;51.074;-1.796;2024-03-25T13:15:34;1.83;;;0.70;;
78410;SDS011;67706;51.074;-1.796;2024-03-25T13:18:00;2.80;;;0.52;;
78410;SDS011;67706;51.074;-1.796;2024-03-25T13:20:26;1.58;;;0.40;;
78410;SDS011;67706;51.074;-1.796;2024-03-25T13:22:53;2.17;;;0.40;;
78410;SDS011;67706;51.074;-1.796;2024-03-25T13:25:20;1.85;;;0.40;;
78410;SDS011;67706;51.074;-1.796;2024-03-25T13:27:47;3.78;;;0.40;;
78410;SDS011;67706;51.074;-1.796;2024-03-25T13:30:13;1.70;;;0.65;;
78410;SDS011;67706;51.074;-1.796;2024-03-25T13:32:39;3.17;;;0.60;;
78410;SDS011;67706;51.074;-1.796;2024-03-25T13:35:04;0.40;;;0.28;;
78410;SDS011;67706;51.074;-1.796;2024-03-25T13:37:31;1.73;;;0.70;;
78410;SDS011;67706;51.074;-1.796;2024-03-25T13:39:57;2.08;;;0.43;;
78410;SDS011;67706;51.074;-1.796;2024-03-25T13:42:22;1.20;;;0.70;;
78410;SDS011;67706;51.074;-1.796;2024-03-25T13:44:49;2.97;;;0.93;;
78410;SDS011;67706;51.074;-1.796;2024-03-25T13:47:15;2.05;;;0.65;;
78410;SDS011;67706;51.074;-1.796;2024-03-25T13:49:41;1.27;;;0.50;;
78410;SDS011;67706;51.074;-1.796;2024-03-25T13:52:07;0.93;;;0.32;;
78410;SDS011;67706;51.074;-1.796;2024-03-25T13:54:32;1.25;;;0.60;;
78410;SDS011;67706;51.074;-1.796;2024-03-25T13:56:58;2.85;;;0.57;;
78410;SDS011;67706;51.074;-1.796;2024-03-25T13:59:24;4.30;;;0.70;;
78410;SDS011;67706;51.074;-1.796;2024-03-25T14:01:51;2.80;;;0.70;;
78410;SDS011;67706;51.074;-1.796;2024-03-25T14:04:17;3.25;;;0.70;;
78410;SDS011;67706;51.074;-1.796;2024-03-25T14:06:43;2.63;;;0.40;;
78410;SDS011;67706;51.074;-1.796;2024-03-25T14:09:09;2.70;;;0.50;;
78410;SDS011;67706;51.074;-1.796;2024-03-25T14:11:35;3.20;;;0.90;;
78410;SDS011;67706;51.074;-1.796;2024-03-25T14:14:00;1.42;;;0.40;;
78410;SDS011;67706;51.074;-1.796;2024-03-25T14:16:26;2.03;;;0.90;;
78410;SDS011;67706;51.074;-1.796;2024-03-25T14:18:54;2.03;;;0.65;;
78410;SDS011;67706;51.074;-1.796;2024-03-25T14:21:20;1.48;;;0.40;;
78410;SDS011;67706;51.074;-1.796;2024-03-25T14:23:46;1.55;;;0.43;;
78410;SDS011;67706;51.074;-1.796;2024-03-25T14:26:12;2.72;;;0.70;;
78410;SDS011;67706;51.074;-1.796;2024-03-25T14:28:40;2.75;;;0.55;;
78410;SDS011;67706;51.074;-1.796;2024-03-25T14:31:06;2.08;;;0.45;;
78410;SDS011;67706;51.074;-1.796;2024-03-25T14:33:31;1.38;;;0.40;;
78410;SDS011;67706;51.074;-1.796;2024-03-25T14:35:58;1.30;;;0.30;;
78410;SDS011;67706;51.074;-1.796;2024-03-25T14:38:24;1.10;;;0.68;;
78410;SDS011;67706;51.074;-1.796;2024-03-25T14:40:50;0.80;;;0.55;;
78410;SDS011;67706;51.074;-1.796;2024-03-25T14:43:15;1.63;;;0.50;;